sensor_id;sensor_type;location;lat;lon;timestamp;temperature;humidity
58469;DHT22;44257;44.804;10.220;2022-07-29T05:32:38;24.50;99.90
58469;DHT22;44257;44.804;10.220;2022-07-29T05:35:06;24.90;99.90
58469;DHT22;44257;44.804;10.220;2022-07-29T05:37:33;25.20;99.90
58469;DHT22;44257;44.804;10.220;2022-07-29T05:40:03;25.30;99.90
58469;DHT22;44257;44.804;10.220;2022-07-29T05:42:29;25.50;99.90
58469;DHT22;44257;44.804;10.220;2022-07-29T05:44:55;25.60;99.90
58469;DHT22;44257;44.804;10.220;2022-07-29T05:47:21;25.70;99.90
58469;DHT22;44257;44.804;10.220;2022-07-29T05:49:51;25.90;99.90
58469;DHT22;44257;44.804;10.220;2022-07-29T05:52:21;26.00;99.90
58469;DHT22;44257;44.804;10.220;2022-07-29T05:57:20;26.30;99.90
58469;DHT22;44257;44.804;10.220;2022-07-29T05:59:48;26.30;99.90
58469;DHT22;44257;44.804;10.220;2022-07-29T06:02:15;26.30;99.90
58469;DHT22;44257;44.804;10.220;2022-07-29T06:04:43;26.20;99.90
58469;DHT22;44257;44.804;10.220;2022-07-29T06:07:08;26.20;99.90
58469;DHT22;44257;44.804;10.220;2022-07-29T06:09:34;26.30;99.90
58469;DHT22;44257;44.804;10.220;2022-07-29T06:12:01;26.50;99.90
58469;DHT22;44257;44.804;10.220;2022-07-29T06:14:41;26.70;99.90
58469;DHT22;44257;44.804;10.220;2022-07-29T06:17:21;26.90;99.90
58469;DHT22;44257;44.804;10.220;2022-07-29T06:19:47;27.00;99.90
58469;DHT22;44257;44.804;10.220;2022-07-29T06:22:15;27.10;99.90
58469;DHT22;44257;44.804;10.220;2022-07-29T06:24:41;27.20;99.90
58469;DHT22;44257;44.804;10.220;2022-07-29T06:27:11;27.50;99.90
58469;DHT22;44257;44.804;10.220;2022-07-29T06:29:37;27.60;99.90
58469;DHT22;44257;44.804;10.220;2022-07-29T06:32:03;27.60;99.90
58469;DHT22;44257;44.804;10.220;2022-07-29T06:34:29;27.60;99.90
58469;DHT22;44257;44.804;10.220;2022-07-29T06:36:55;27.80;99.90
58469;DHT22;44257;44.804;10.220;2022-07-29T06:39:21;27.90;99.90
58469;DHT22;44257;44.804;10.220;2022-07-29T06:41:48;28.00;99.90
58469;DHT22;44257;44.804;10.220;2022-07-29T06:44:15;28.20;99.90
58469;DHT22;44257;44.804;10.220;2022-07-29T06:46:41;28.00;99.90
58469;DHT22;44257;44.804;10.220;2022-07-29T06:49:07;27.90;99.90
58469;DHT22;44257;44.804;10.220;2022-07-29T06:51:33;27.70;99.90
58469;DHT22;44257;44.804;10.220;2022-07-29T06:54:02;27.50;99.90
58469;DHT22;44257;44.804;10.220;2022-07-29T06:56:31;27.20;99.90
58469;DHT22;44257;44.804;10.220;2022-07-29T06:58:57;27.00;99.90
58469;DHT22;44257;44.804;10.220;2022-07-29T07:01:23;26.90;99.90
58469;DHT22;44257;44.804;10.220;2022-07-29T07:03:49;26.90;99.90
58469;DHT22;44257;44.804;10.220;2022-07-29T07:06:16;26.90;99.90
58469;DHT22;44257;44.804;10.220;2022-07-29T07:08:42;27.00;99.90
58469;DHT22;44257;44.804;10.220;2022-07-29T07:11:08;27.20;99.90
58469;DHT22;44257;44.804;10.220;2022-07-29T07:13:34;27.30;99.90
58469;DHT22;44257;44.804;10.220;2022-07-29T07:16:01;27.40;99.90
58469;DHT22;44257;44.804;10.220;2022-07-29T07:18:27;27.50;99.90
58469;DHT22;44257;44.804;10.220;2022-07-29T07:20:53;27.60;99.90
58469;DHT22;44257;44.804;10.220;2022-07-29T07:23:20;27.60;99.90
58469;DHT22;44257;44.804;10.220;2022-07-29T07:25:46;27.70;99.90
58469;DHT22;44257;44.804;10.220;2022-07-29T07:28:14;27.80;99.90
58469;DHT22;44257;44.804;10.220;2022-07-29T07:30:40;27.90;99.90
58469;DHT22;44257;44.804;10.220;2022-07-29T07:33:06;28.00;99.90
58469;DHT22;44257;44.804;10.220;2022-07-29T07:35:32;27.90;99.90
58469;DHT22;44257;44.804;10.220;2022-07-29T07:37:58;28.00;99.90
58469;DHT22;44257;44.804;10.220;2022-07-29T07:40:24;28.00;99.90
58469;DHT22;44257;44.804;10.220;2022-07-29T07:42:51;28.00;99.90
58469;DHT22;44257;44.804;10.220;2022-07-29T07:45:17;28.00;99.70
58469;DHT22;44257;44.804;10.220;2022-07-29T07:47:43;28.00;99.90
58469;DHT22;44257;44.804;10.220;2022-07-29T07:50:11;28.10;99.90
58469;DHT22;44257;44.804;10.220;2022-07-29T07:52:57;28.10;99.90
58469;DHT22;44257;44.804;10.220;2022-07-29T07:55:24;28.10;99.90
58469;DHT22;44257;44.804;10.220;2022-07-29T07:57:50;28.10;99.90
58469;DHT22;44257;44.804;10.220;2022-07-29T08:00:17;28.20;99.30
58469;DHT22;44257;44.804;10.220;2022-07-29T08:02:43;28.20;99.40
58469;DHT22;44257;44.804;10.220;2022-07-29T08:05:10;28.20;99.90
58469;DHT22;44257;44.804;10.220;2022-07-29T08:07:37;28.20;99.90
58469;DHT22;44257;44.804;10.220;2022-07-29T08:10:03;28.40;99.90
58469;DHT22;44257;44.804;10.220;2022-07-29T08:12:29;28.60;99.50
58469;DHT22;44257;44.804;10.220;2022-07-29T08:14:55;28.70;98.70
58469;DHT22;44257;44.804;10.220;2022-07-29T08:17:21;28.80;98.60
58469;DHT22;44257;44.804;10.220;2022-07-29T08:19:47;28.80;98.30
58469;DHT22;44257;44.804;10.220;2022-07-29T08:22:14;28.80;97.60
58469;DHT22;44257;44.804;10.220;2022-07-29T08:24:40;28.90;99.10
58469;DHT22;44257;44.804;10.220;2022-07-29T08:27:13;29.20;98.10
58469;DHT22;44257;44.804;10.220;2022-07-29T08:29:39;29.30;97.30
58469;DHT22;44257;44.804;10.220;2022-07-29T08:32:06;29.30;97.00
58469;DHT22;44257;44.804;10.220;2022-07-29T08:34:32;29.40;97.20
58469;DHT22;44257;44.804;10.220;2022-07-29T08:36:58;29.50;96.40
58469;DHT22;44257;44.804;10.220;2022-07-29T08:39:24;29.50;95.80
58469;DHT22;44257;44.804;10.220;2022-07-29T08:41:50;29.70;96.10
58469;DHT22;44257;44.804;10.220;2022-07-29T08:44:18;29.80;95.90
58469;DHT22;44257;44.804;10.220;2022-07-29T08:46:45;30.00;96.00
58469;DHT22;44257;44.804;10.220;2022-07-29T08:49:11;30.30;95.40
58469;DHT22;44257;44.804;10.220;2022-07-29T08:51:39;30.50;95.10
58469;DHT22;44257;44.804;10.220;2022-07-29T08:54:07;30.60;92.70
58469;DHT22;44257;44.804;10.220;2022-07-29T08:56:34;30.60;91.80
58469;DHT22;44257;44.804;10.220;2022-07-29T08:59:05;30.40;93.50
58469;DHT22;44257;44.804;10.220;2022-07-29T09:01:37;30.50;93.60
58469;DHT22;44257;44.804;10.220;2022-07-29T09:04:07;30.60;91.80
58469;DHT22;44257;44.804;10.220;2022-07-29T09:06:37;30.50;91.80
58469;DHT22;44257;44.804;10.220;2022-07-29T09:09:03;30.50;91.70
58469;DHT22;44257;44.804;10.220;2022-07-29T09:11:29;30.50;93.40
58469;DHT22;44257;44.804;10.220;2022-07-29T09:13:57;30.60;93.70
58469;DHT22;44257;44.804;10.220;2022-07-29T09:16:23;30.80;92.40
58469;DHT22;44257;44.804;10.220;2022-07-29T09:18:49;30.80;92.10
58469;DHT22;44257;44.804;10.220;2022-07-29T09:21:17;30.70;92.10
58469;DHT22;44257;44.804;10.220;2022-07-29T09:24:09;30.50;91.70
58469;DHT22;44257;44.804;10.220;2022-07-29T09:26:39;30.40;93.10
58469;DHT22;44257;44.804;10.220;2022-07-29T09:29:10;30.50;93.20
58469;DHT22;44257;44.804;10.220;2022-07-29T09:31:39;30.50;91.20
58469;DHT22;44257;44.804;10.220;2022-07-29T09:34:08;30.40;91.60
58469;DHT22;44257;44.804;10.220;2022-07-29T09:36:46;30.50;91.40
58469;DHT22;44257;44.804;10.220;2022-07-29T09:39:13;30.50;90.60
58469;DHT22;44257;44.804;10.220;2022-07-29T09:41:52;30.30;90.80
58469;DHT22;44257;44.804;10.220;2022-07-29T09:44:19;30.10;91.10
58469;DHT22;44257;44.804;10.220;2022-07-29T09:49:25;30.30;92.00
58469;DHT22;44257;44.804;10.220;2022-07-29T09:52:03;30.50;91.30
58469;DHT22;44257;44.804;10.220;2022-07-29T09:54:29;30.80;92.00
58469;DHT22;44257;44.804;10.220;2022-07-29T09:56:59;31.10;91.40
58469;DHT22;44257;44.804;10.220;2022-07-29T09:59:25;31.40;90.20
58469;DHT22;44257;44.804;10.220;2022-07-29T10:01:52;31.40;89.90
58469;DHT22;44257;44.804;10.220;2022-07-29T10:04:19;31.30;89.40
58469;DHT22;44257;44.804;10.220;2022-07-29T10:06:59;31.20;89.00
58469;DHT22;44257;44.804;10.220;2022-07-29T10:09:26;31.00;90.10
58469;DHT22;44257;44.804;10.220;2022-07-29T10:12:12;31.20;89.60
58469;DHT22;44257;44.804;10.220;2022-07-29T10:14:42;31.60;90.40
58469;DHT22;44257;44.804;10.220;2022-07-29T10:17:09;31.80;89.90
58469;DHT22;44257;44.804;10.220;2022-07-29T10:19:36;32.00;87.80
58469;DHT22;44257;44.804;10.220;2022-07-29T10:22:06;32.20;87.60
58469;DHT22;44257;44.804;10.220;2022-07-29T10:24:34;32.30;86.30
58469;DHT22;44257;44.804;10.220;2022-07-29T10:27:02;32.30;89.30
58469;DHT22;44257;44.804;10.220;2022-07-29T10:29:29;32.30;85.20
58469;DHT22;44257;44.804;10.220;2022-07-29T10:32:21;32.30;85.50
58469;DHT22;44257;44.804;10.220;2022-07-29T10:45:48;32.40;84.80
58469;DHT22;44257;44.804;10.220;2022-07-29T10:48:15;32.50;82.40
58469;DHT22;44257;44.804;10.220;2022-07-29T10:50:58;32.60;84.60
58469;DHT22;44257;44.804;10.220;2022-07-29T10:53:51;32.80;82.20
58469;DHT22;44257;44.804;10.220;2022-07-29T10:56:26;32.80;83.10
58469;DHT22;44257;44.804;10.220;2022-07-29T11:01:52;32.80;81.00
58469;DHT22;44257;44.804;10.220;2022-07-29T11:07:09;32.60;80.80
58469;DHT22;44257;44.804;10.220;2022-07-29T11:09:35;32.60;87.90
58469;DHT22;44257;44.804;10.220;2022-07-29T11:12:02;32.80;84.80
58469;DHT22;44257;44.804;10.220;2022-07-29T11:17:20;32.90;80.60
58469;DHT22;44257;44.804;10.220;2022-07-29T11:19:46;32.90;82.20
58469;DHT22;44257;44.804;10.220;2022-07-29T11:22:34;33.20;82.40
58469;DHT22;44257;44.804;10.220;2022-07-29T11:25:16;33.50;80.80
58469;DHT22;44257;44.804;10.220;2022-07-29T11:27:42;33.60;81.00
58469;DHT22;44257;44.804;10.220;2022-07-29T11:30:09;33.70;76.60
58469;DHT22;44257;44.804;10.220;2022-07-29T11:32:39;33.60;78.60
58469;DHT22;44257;44.804;10.220;2022-07-29T11:35:19;33.60;81.50
58469;DHT22;44257;44.804;10.220;2022-07-29T11:41:22;33.50;75.40
58469;DHT22;44257;44.804;10.220;2022-07-29T11:43:50;33.50;77.30
58469;DHT22;44257;44.804;10.220;2022-07-29T11:49:03;33.50;73.90
58469;DHT22;44257;44.804;10.220;2022-07-29T11:51:30;33.60;74.70
58469;DHT22;44257;44.804;10.220;2022-07-29T11:53:57;33.70;73.70
58469;DHT22;44257;44.804;10.220;2022-07-29T11:56:26;33.70;78.20
58469;DHT22;44257;44.804;10.220;2022-07-29T11:59:06;33.80;74.80
58469;DHT22;44257;44.804;10.220;2022-07-29T12:01:34;34.10;75.50
58469;DHT22;44257;44.804;10.220;2022-07-29T12:04:04;34.20;73.30
58469;DHT22;44257;44.804;10.220;2022-07-29T12:06:31;34.40;75.60
58469;DHT22;44257;44.804;10.220;2022-07-29T12:08:57;34.60;71.40
58469;DHT22;44257;44.804;10.220;2022-07-29T12:11:26;34.70;72.30
58469;DHT22;44257;44.804;10.220;2022-07-29T12:13:53;34.90;71.30
58469;DHT22;44257;44.804;10.220;2022-07-29T12:16:20;34.80;70.20
58469;DHT22;44257;44.804;10.220;2022-07-29T12:19:00;34.50;68.80
58469;DHT22;44257;44.804;10.220;2022-07-29T12:24:11;33.70;70.90
58469;DHT22;44257;44.804;10.220;2022-07-29T12:26:49;33.40;71.80
58469;DHT22;44257;44.804;10.220;2022-07-29T12:29:16;33.10;72.20
58469;DHT22;44257;44.804;10.220;2022-07-29T12:31:43;32.80;73.30
58469;DHT22;44257;44.804;10.220;2022-07-29T12:34:13;32.70;73.30
58469;DHT22;44257;44.804;10.220;2022-07-29T12:36:42;32.60;74.80
58469;DHT22;44257;44.804;10.220;2022-07-29T12:39:09;32.40;75.20
58469;DHT22;44257;44.804;10.220;2022-07-29T12:41:36;32.20;75.50
58469;DHT22;44257;44.804;10.220;2022-07-29T12:44:02;32.10;78.00
58469;DHT22;44257;44.804;10.220;2022-07-29T12:46:28;32.00;76.80
58469;DHT22;44257;44.804;10.220;2022-07-29T12:48:54;31.90;76.20
58469;DHT22;44257;44.804;10.220;2022-07-29T12:51:38;31.80;77.10
58469;DHT22;44257;44.804;10.220;2022-07-29T12:56:34;31.60;77.90
58469;DHT22;44257;44.804;10.220;2022-07-29T12:59:00;31.30;82.20
58469;DHT22;44257;44.804;10.220;2022-07-29T13:01:36;31.10;88.70
58469;DHT22;44257;44.804;10.220;2022-07-29T13:04:02;30.90;91.00
58469;DHT22;44257;44.804;10.220;2022-07-29T13:06:30;30.70;91.50
58469;DHT22;44257;44.804;10.220;2022-07-29T13:09:00;30.50;96.00
58469;DHT22;44257;44.804;10.220;2022-07-29T13:11:31;30.30;98.00
58469;DHT22;44257;44.804;10.220;2022-07-29T13:13:57;30.20;99.90
58469;DHT22;44257;44.804;10.220;2022-07-29T13:16:24;30.10;99.90
58469;DHT22;44257;44.804;10.220;2022-07-29T13:19:03;29.90;99.20
58469;DHT22;44257;44.804;10.220;2022-07-29T13:21:29;29.60;99.90
58469;DHT22;44257;44.804;10.220;2022-07-29T13:23:55;29.40;99.90
58469;DHT22;44257;44.804;10.220;2022-07-29T13:26:21;29.10;99.90
58469;DHT22;44257;44.804;10.220;2022-07-29T13:28:47;28.90;99.90
58469;DHT22;44257;44.804;10.220;2022-07-29T13:31:13;28.70;99.90
58469;DHT22;44257;44.804;10.220;2022-07-29T13:33:39;28.60;99.90
58469;DHT22;44257;44.804;10.220;2022-07-29T13:36:05;28.50;99.90
58469;DHT22;44257;44.804;10.220;2022-07-29T13:38:31;28.30;99.90
58469;DHT22;44257;44.804;10.220;2022-07-29T13:40:57;28.10;99.90
58469;DHT22;44257;44.804;10.220;2022-07-29T13:43:23;27.70;99.90
58469;DHT22;44257;44.804;10.220;2022-07-29T13:45:49;27.30;99.90
58469;DHT22;44257;44.804;10.220;2022-07-29T13:48:15;26.90;99.90
58469;DHT22;44257;44.804;10.220;2022-07-29T13:50:41;26.60;99.90
58469;DHT22;44257;44.804;10.220;2022-07-29T13:53:07;26.50;99.90
58469;DHT22;44257;44.804;10.220;2022-07-29T13:55:33;26.40;99.90
58469;DHT22;44257;44.804;10.220;2022-07-29T13:57:59;26.30;99.90
58469;DHT22;44257;44.804;10.220;2022-07-29T14:00:25;26.20;99.90
58469;DHT22;44257;44.804;10.220;2022-07-29T14:02:51;26.00;99.90
58469;DHT22;44257;44.804;10.220;2022-07-29T14:05:21;25.80;99.90
58469;DHT22;44257;44.804;10.220;2022-07-29T14:07:46;25.60;99.90
58469;DHT22;44257;44.804;10.220;2022-07-29T14:10:13;25.70;99.90
58469;DHT22;44257;44.804;10.220;2022-07-29T14:12:39;25.70;99.90
58469;DHT22;44257;44.804;10.220;2022-07-29T14:15:07;25.80;99.90
58469;DHT22;44257;44.804;10.220;2022-07-29T14:17:34;25.90;99.90
58469;DHT22;44257;44.804;10.220;2022-07-29T14:20:00;26.00;99.90
58469;DHT22;44257;44.804;10.220;2022-07-29T14:22:26;26.00;99.90
58469;DHT22;44257;44.804;10.220;2022-07-29T14:24:52;26.10;99.90
58469;DHT22;44257;44.804;10.220;2022-07-29T14:27:18;26.20;99.90
58469;DHT22;44257;44.804;10.220;2022-07-29T14:29:44;26.30;99.90
58469;DHT22;44257;44.804;10.220;2022-07-29T14:32:10;26.20;99.90
58469;DHT22;44257;44.804;10.220;2022-07-29T14:34:37;26.30;99.90
58469;DHT22;44257;44.804;10.220;2022-07-29T14:37:04;26.30;99.90
58469;DHT22;44257;44.804;10.220;2022-07-29T14:39:31;26.40;99.90
58469;DHT22;44257;44.804;10.220;2022-07-29T14:41:57;26.40;99.90
58469;DHT22;44257;44.804;10.220;2022-07-29T14:44:22;26.30;99.90
58469;DHT22;44257;44.804;10.220;2022-07-29T14:46:49;26.10;99.90
58469;DHT22;44257;44.804;10.220;2022-07-29T14:49:15;26.00;99.90
58469;DHT22;44257;44.804;10.220;2022-07-29T14:51:41;25.90;99.90
58469;DHT22;44257;44.804;10.220;2022-07-29T14:54:07;25.80;99.90
58469;DHT22;44257;44.804;10.220;2022-07-29T14:56:33;25.70;99.90
58469;DHT22;44257;44.804;10.220;2022-07-29T14:58:58;25.40;99.90
58469;DHT22;44257;44.804;10.220;2022-07-29T15:01:24;25.10;99.90
58469;DHT22;44257;44.804;10.220;2022-07-29T15:03:51;24.80;99.90
58469;DHT22;44257;44.804;10.220;2022-07-29T15:06:18;24.50;99.90
58469;DHT22;44257;44.804;10.220;2022-07-29T15:08:44;24.30;99.90
58469;DHT22;44257;44.804;10.220;2022-07-29T15:11:10;24.10;99.90
58469;DHT22;44257;44.804;10.220;2022-07-29T15:13:36;24.10;99.90
58469;DHT22;44257;44.804;10.220;2022-07-29T15:16:04;24.00;99.90
58469;DHT22;44257;44.804;10.220;2022-07-29T15:18:30;24.00;99.90
58469;DHT22;44257;44.804;10.220;2022-07-29T15:20:55;24.10;99.90
58469;DHT22;44257;44.804;10.220;2022-07-29T15:23:21;24.10;99.90
58469;DHT22;44257;44.804;10.220;2022-07-29T15:25:47;24.20;99.90
58469;DHT22;44257;44.804;10.220;2022-07-29T15:28:13;24.20;99.90
58469;DHT22;44257;44.804;10.220;2022-07-29T15:30:39;24.30;99.90
58469;DHT22;44257;44.804;10.220;2022-07-29T15:33:07;24.30;99.90
58469;DHT22;44257;44.804;10.220;2022-07-29T15:35:35;24.40;99.90
58469;DHT22;44257;44.804;10.220;2022-07-29T15:38:00;24.50;99.90
58469;DHT22;44257;44.804;10.220;2022-07-29T15:40:26;24.50;99.90
58469;DHT22;44257;44.804;10.220;2022-07-29T15:42:52;24.60;99.90
58469;DHT22;44257;44.804;10.220;2022-07-29T15:45:18;24.70;99.90
58469;DHT22;44257;44.804;10.220;2022-07-29T15:47:44;24.70;99.90
58469;DHT22;44257;44.804;10.220;2022-07-29T15:50:10;24.80;99.90
58469;DHT22;44257;44.804;10.220;2022-07-29T15:52:41;24.80;99.90
58469;DHT22;44257;44.804;10.220;2022-07-29T15:55:07;24.90;99.90
58469;DHT22;44257;44.804;10.220;2022-07-29T15:57:34;24.90;99.90
58469;DHT22;44257;44.804;10.220;2022-07-29T16:00:00;25.00;99.90
58469;DHT22;44257;44.804;10.220;2022-07-29T16:02:26;25.10;99.90
58469;DHT22;44257;44.804;10.220;2022-07-29T16:04:52;25.10;99.90
58469;DHT22;44257;44.804;10.220;2022-07-29T16:07:18;25.20;99.90
58469;DHT22;44257;44.804;10.220;2022-07-29T16:09:44;25.30;99.90
58469;DHT22;44257;44.804;10.220;2022-07-29T16:12:10;25.30;99.90
58469;DHT22;44257;44.804;10.220;2022-07-29T16:14:37;25.40;99.90
58469;DHT22;44257;44.804;10.220;2022-07-29T16:17:03;25.40;99.90
58469;DHT22;44257;44.804;10.220;2022-07-29T16:19:30;25.40;99.90
58469;DHT22;44257;44.804;10.220;2022-07-29T16:21:55;25.40;99.90
58469;DHT22;44257;44.804;10.220;2022-07-29T16:24:21;25.40;99.90
58469;DHT22;44257;44.804;10.220;2022-07-29T16:26:48;25.40;99.90
58469;DHT22;44257;44.804;10.220;2022-07-29T16:29:14;25.50;99.90
58469;DHT22;44257;44.804;10.220;2022-07-29T16:31:42;25.60;99.90
58469;DHT22;44257;44.804;10.220;2022-07-29T16:34:08;25.70;99.90
58469;DHT22;44257;44.804;10.220;2022-07-29T16:36:34;25.80;99.90
58469;DHT22;44257;44.804;10.220;2022-07-29T16:39:00;26.00;99.90
58469;DHT22;44257;44.804;10.220;2022-07-29T16:41:26;26.10;99.90
58469;DHT22;44257;44.804;10.220;2022-07-29T16:43:52;26.20;99.90
58469;DHT22;44257;44.804;10.220;2022-07-29T16:46:18;26.20;99.90
58469;DHT22;44257;44.804;10.220;2022-07-29T16:48:47;26.20;99.90
58469;DHT22;44257;44.804;10.220;2022-07-29T16:51:13;26.40;99.90
58469;DHT22;44257;44.804;10.220;2022-07-29T16:53:39;26.40;99.90
58469;DHT22;44257;44.804;10.220;2022-07-29T16:56:05;26.50;99.90
58469;DHT22;44257;44.804;10.220;2022-07-29T16:58:31;26.50;99.90
58469;DHT22;44257;44.804;10.220;2022-07-29T17:00:58;26.50;99.90
58469;DHT22;44257;44.804;10.220;2022-07-29T17:03:24;26.50;99.90
58469;DHT22;44257;44.804;10.220;2022-07-29T17:05:50;26.50;99.90
58469;DHT22;44257;44.804;10.220;2022-07-29T17:08:16;26.60;99.90
58469;DHT22;44257;44.804;10.220;2022-07-29T17:10:42;26.70;99.90
58469;DHT22;44257;44.804;10.220;2022-07-29T17:13:08;26.80;99.90
58469;DHT22;44257;44.804;10.220;2022-07-29T17:15:35;26.80;99.90
58469;DHT22;44257;44.804;10.220;2022-07-29T17:18:01;26.70;99.90
58469;DHT22;44257;44.804;10.220;2022-07-29T17:20:27;26.70;99.90
58469;DHT22;44257;44.804;10.220;2022-07-29T17:22:53;26.60;99.90
58469;DHT22;44257;44.804;10.220;2022-07-29T17:25:20;26.50;99.90
58469;DHT22;44257;44.804;10.220;2022-07-29T17:27:47;26.40;99.90
58469;DHT22;44257;44.804;10.220;2022-07-29T17:30:14;26.30;99.90
58469;DHT22;44257;44.804;10.220;2022-07-29T17:32:40;26.20;99.90
58469;DHT22;44257;44.804;10.220;2022-07-29T17:35:07;26.10;99.90
58469;DHT22;44257;44.804;10.220;2022-07-29T17:37:53;26.10;99.90
58469;DHT22;44257;44.804;10.220;2022-07-29T17:40:19;26.00;99.90
58469;DHT22;44257;44.804;10.220;2022-07-29T17:42:45;25.90;99.90
58469;DHT22;44257;44.804;10.220;2022-07-29T17:45:11;25.70;99.90
58469;DHT22;44257;44.804;10.220;2022-07-29T17:47:37;25.70;99.90
58469;DHT22;44257;44.804;10.220;2022-07-29T17:50:04;25.60;99.90
58469;DHT22;44257;44.804;10.220;2022-07-29T17:52:30;25.40;99.90
58469;DHT22;44257;44.804;10.220;2022-07-29T17:54:56;25.20;99.90
58469;DHT22;44257;44.804;10.220;2022-07-29T17:57:22;25.10;99.90
58469;DHT22;44257;44.804;10.220;2022-07-29T17:59:47;24.90;99.90
58469;DHT22;44257;44.804;10.220;2022-07-29T18:02:13;24.80;99.90
58469;DHT22;44257;44.804;10.220;2022-07-29T18:04:40;24.60;99.90
58469;DHT22;44257;44.804;10.220;2022-07-29T18:07:06;24.40;99.90
58469;DHT22;44257;44.804;10.220;2022-07-29T18:09:32;24.20;99.90
58469;DHT22;44257;44.804;10.220;2022-07-29T18:11:58;24.00;99.90
58469;DHT22;44257;44.804;10.220;2022-07-29T18:14:23;23.80;99.90
58469;DHT22;44257;44.804;10.220;2022-07-29T18:16:49;23.60;99.90
58469;DHT22;44257;44.804;10.220;2022-07-29T18:19:15;23.40;99.90
58469;DHT22;44257;44.804;10.220;2022-07-29T18:21:41;23.10;99.90
58469;DHT22;44257;44.804;10.220;2022-07-29T18:24:07;22.90;99.90
58469;DHT22;44257;44.804;10.220;2022-07-29T18:26:33;22.70;99.90
58469;DHT22;44257;44.804;10.220;2022-07-29T18:28:59;22.60;99.90
58469;DHT22;44257;44.804;10.220;2022-07-29T18:31:25;22.50;99.90
58469;DHT22;44257;44.804;10.220;2022-07-29T18:33:52;22.50;99.90
58469;DHT22;44257;44.804;10.220;2022-07-29T18:36:18;22.50;99.90
58469;DHT22;44257;44.804;10.220;2022-07-29T18:38:44;22.50;99.90
58469;DHT22;44257;44.804;10.220;2022-07-29T18:41:10;22.60;99.90
58469;DHT22;44257;44.804;10.220;2022-07-29T18:43:36;22.70;99.90
58469;DHT22;44257;44.804;10.220;2022-07-29T18:46:02;22.70;99.90
58469;DHT22;44257;44.804;10.220;2022-07-29T18:48:31;22.80;99.90
58469;DHT22;44257;44.804;10.220;2022-07-29T18:50:58;22.80;99.90
58469;DHT22;44257;44.804;10.220;2022-07-29T18:53:24;22.90;99.90
58469;DHT22;44257;44.804;10.220;2022-07-29T18:55:52;22.80;99.90
58469;DHT22;44257;44.804;10.220;2022-07-29T18:58:18;22.80;99.90
58469;DHT22;44257;44.804;10.220;2022-07-29T19:00:44;22.70;99.90
58469;DHT22;44257;44.804;10.220;2022-07-29T19:03:09;22.70;99.90
58469;DHT22;44257;44.804;10.220;2022-07-29T19:05:35;22.70;99.90
58469;DHT22;44257;44.804;10.220;2022-07-29T19:08:02;22.70;99.90
58469;DHT22;44257;44.804;10.220;2022-07-29T19:10:28;22.70;99.90
58469;DHT22;44257;44.804;10.220;2022-07-29T19:12:54;22.70;99.90
58469;DHT22;44257;44.804;10.220;2022-07-29T19:15:21;22.70;99.90
58469;DHT22;44257;44.804;10.220;2022-07-29T19:17:47;22.60;99.90
58469;DHT22;44257;44.804;10.220;2022-07-29T19:20:14;22.60;99.90
58469;DHT22;44257;44.804;10.220;2022-07-29T19:22:40;22.60;99.90
58469;DHT22;44257;44.804;10.220;2022-07-29T19:25:06;22.60;99.90
58469;DHT22;44257;44.804;10.220;2022-07-29T19:27:32;22.50;99.90
58469;DHT22;44257;44.804;10.220;2022-07-29T19:29:58;22.50;99.90
58469;DHT22;44257;44.804;10.220;2022-07-29T19:32:25;22.60;99.90
58469;DHT22;44257;44.804;10.220;2022-07-29T19:34:51;22.60;99.90
58469;DHT22;44257;44.804;10.220;2022-07-29T19:37:35;22.60;99.90
58469;DHT22;44257;44.804;10.220;2022-07-29T19:40:02;22.50;99.90
58469;DHT22;44257;44.804;10.220;2022-07-29T19:42:29;22.50;99.90
58469;DHT22;44257;44.804;10.220;2022-07-29T19:44:55;22.40;99.90
58469;DHT22;44257;44.804;10.220;2022-07-29T19:47:21;22.20;99.90
58469;DHT22;44257;44.804;10.220;2022-07-29T19:49:47;22.10;99.90
58469;DHT22;44257;44.804;10.220;2022-07-29T19:52:14;22.00;99.90
58469;DHT22;44257;44.804;10.220;2022-07-29T19:54:40;22.00;99.90
58469;DHT22;44257;44.804;10.220;2022-07-29T19:57:05;21.90;99.90
58469;DHT22;44257;44.804;10.220;2022-07-29T19:59:31;21.80;99.90
58469;DHT22;44257;44.804;10.220;2022-07-29T20:01:57;21.80;99.90
58469;DHT22;44257;44.804;10.220;2022-07-29T20:04:23;21.80;99.90
58469;DHT22;44257;44.804;10.220;2022-07-29T20:06:49;21.80;99.90
58469;DHT22;44257;44.804;10.220;2022-07-29T20:09:17;21.80;99.90
58469;DHT22;44257;44.804;10.220;2022-07-29T20:11:44;21.90;99.90
58469;DHT22;44257;44.804;10.220;2022-07-29T20:14:10;21.90;99.90
58469;DHT22;44257;44.804;10.220;2022-07-29T20:16:35;22.00;99.90
58469;DHT22;44257;44.804;10.220;2022-07-29T20:19:01;22.00;99.90
58469;DHT22;44257;44.804;10.220;2022-07-29T20:21:27;22.00;99.90
58469;DHT22;44257;44.804;10.220;2022-07-29T20:23:53;22.00;99.90
58469;DHT22;44257;44.804;10.220;2022-07-29T20:26:21;22.00;99.90
58469;DHT22;44257;44.804;10.220;2022-07-29T20:28:46;22.00;99.90
58469;DHT22;44257;44.804;10.220;2022-07-29T20:31:13;22.00;99.90
58469;DHT22;44257;44.804;10.220;2022-07-29T20:33:41;22.00;99.90
58469;DHT22;44257;44.804;10.220;2022-07-29T20:36:07;22.00;99.90
58469;DHT22;44257;44.804;10.220;2022-07-29T20:38:33;22.00;99.90
58469;DHT22;44257;44.804;10.220;2022-07-29T20:40:59;22.00;99.90
58469;DHT22;44257;44.804;10.220;2022-07-29T20:43:25;22.00;99.90
58469;DHT22;44257;44.804;10.220;2022-07-29T20:45:51;21.90;99.90
58469;DHT22;44257;44.804;10.220;2022-07-29T20:48:17;22.00;99.90
58469;DHT22;44257;44.804;10.220;2022-07-29T20:50:43;22.00;99.90
58469;DHT22;44257;44.804;10.220;2022-07-29T20:53:10;22.00;99.90
58469;DHT22;44257;44.804;10.220;2022-07-29T20:55:36;22.00;99.90
58469;DHT22;44257;44.804;10.220;2022-07-29T20:58:03;22.00;99.90
58469;DHT22;44257;44.804;10.220;2022-07-29T21:00:30;22.00;99.90
58469;DHT22;44257;44.804;10.220;2022-07-29T21:02:56;22.00;99.90
58469;DHT22;44257;44.804;10.220;2022-07-29T21:05:22;22.00;99.90
58469;DHT22;44257;44.804;10.220;2022-07-29T21:07:48;22.00;99.90
58469;DHT22;44257;44.804;10.220;2022-07-29T21:10:14;22.00;99.90
58469;DHT22;44257;44.804;10.220;2022-07-29T21:12:46;22.00;99.90
58469;DHT22;44257;44.804;10.220;2022-07-29T21:15:14;21.90;99.90
58469;DHT22;44257;44.804;10.220;2022-07-29T21:17:40;21.80;99.90
58469;DHT22;44257;44.804;10.220;2022-07-29T21:20:13;21.90;99.90
58469;DHT22;44257;44.804;10.220;2022-07-29T21:22:40;21.80;99.90
58469;DHT22;44257;44.804;10.220;2022-07-29T21:25:07;21.70;99.90